createdAt,value
2022-10-04T00:01:45.042Z,5.28
2022-10-04T00:04:21.447Z,5.40
2022-10-04T00:07:16.217Z,5.38
2022-10-04T00:09:53.202Z,5.03
2022-10-04T00:12:27.175Z,5.43
2022-10-04T00:14:57.452Z,5.43
2022-10-04T00:17:27.317Z,4.90
2022-10-04T00:19:55.169Z,5.13
2022-10-04T00:22:23.977Z,5.57
2022-10-04T00:25:09.865Z,4.95
2022-10-04T00:27:38.192Z,5.20
2022-10-04T00:30:04.526Z,5.20
2022-10-04T00:32:40.262Z,5.57
2022-10-04T00:35:24.744Z,5.70
2022-10-04T00:37:58.731Z,5.45
2022-10-04T00:40:32.780Z,5.28
2022-10-04T00:43:05.006Z,5.40
2022-10-04T00:45:41.471Z,5.50
2022-10-04T00:48:07.798Z,5.07
2022-10-04T00:50:42.012Z,5.22
2022-10-04T00:53:27.238Z,4.88
2022-10-04T00:55:59.991Z,5.10
2022-10-04T00:58:32.597Z,5.30
2022-10-04T01:01:00.976Z,4.90
2022-10-04T01:03:41.317Z,5.15
2022-10-04T01:06:10.864Z,5.10
2022-10-04T01:08:54.591Z,5.10
2022-10-04T01:11:27.192Z,4.75
2022-10-04T01:14:08.716Z,5.00
2022-10-04T01:16:36.369Z,4.80
2022-10-04T01:19:24.716Z,5.55
2022-10-04T01:21:58.676Z,5.20
2022-10-04T01:24:25.127Z,5.10
2022-10-04T01:26:51.601Z,5.35
2022-10-04T01:29:25.482Z,5.05
2022-10-04T01:31:54.870Z,5.05
2022-10-04T01:34:24.806Z,5.20
2022-10-04T01:36:54.308Z,5.35
2022-10-04T01:39:23.206Z,5.38
2022-10-04T01:42:03.206Z,5.63
2022-10-04T01:45:18.862Z,5.05
2022-10-04T01:47:54.031Z,5.03
2022-10-04T01:50:28.046Z,4.75
2022-10-04T01:53:01.434Z,4.97
2022-10-04T01:55:34.192Z,5.18
2022-10-04T01:58:17.227Z,4.78
2022-10-04T02:00:52.043Z,4.80
2022-10-04T02:03:27.588Z,5.10
2022-10-04T02:05:58.756Z,5.18
2022-10-04T02:08:33.634Z,4.30
2022-10-04T02:11:03.112Z,5.00
2022-10-04T02:13:40.941Z,4.77
2022-10-04T02:16:12.092Z,4.82
2022-10-04T02:18:40.178Z,4.95
2022-10-04T02:21:08.152Z,5.00
2022-10-04T02:23:36.981Z,4.60
2022-10-04T02:26:08.105Z,4.40
2022-10-04T02:28:36.134Z,5.05
2022-10-04T02:31:23.750Z,5.35
2022-10-04T02:33:52.892Z,4.70
2022-10-04T02:36:25.718Z,4.65
2022-10-04T02:39:16.328Z,4.60
2022-10-04T02:42:03.749Z,4.57
2022-10-04T02:44:40.115Z,5.25
2022-10-04T02:47:13.968Z,4.70
2022-10-04T02:49:52.574Z,4.82
2022-10-04T02:52:25.989Z,5.13
2022-10-04T02:55:03.258Z,5.15
2022-10-04T02:57:32.743Z,4.93
2022-10-04T03:00:20.982Z,5.20
2022-10-04T03:03:12.279Z,4.47
2022-10-04T03:05:40.453Z,5.20
2022-10-04T03:08:07.412Z,4.78
2022-10-04T03:10:35.438Z,4.55
2022-10-04T03:13:03.328Z,4.18
2022-10-04T03:15:30.291Z,4.53
2022-10-04T03:17:56.802Z,4.60
2022-10-04T03:20:23.163Z,4.88
2022-10-04T03:22:55.590Z,4.80
2022-10-04T03:25:48.571Z,4.50
2022-10-04T03:28:15.244Z,4.57
2022-10-04T03:30:46.631Z,4.47
2022-10-04T03:33:31.442Z,4.75
2022-10-04T03:36:00.821Z,4.63
2022-10-04T03:38:28.813Z,4.60
2022-10-04T03:40:59.028Z,4.78
2022-10-04T03:43:31.398Z,4.77
2022-10-04T03:46:00.361Z,4.30
2022-10-04T03:48:44.675Z,4.47
2022-10-04T03:51:16.879Z,4.03
2022-10-04T03:53:47.386Z,4.50
2022-10-04T03:56:44.586Z,4.67
2022-10-04T03:59:16.131Z,4.57
2022-10-04T04:01:56.336Z,5.05
2022-10-04T04:04:46.211Z,4.97
2022-10-04T04:07:20.117Z,4.53
2022-10-04T04:10:01.629Z,4.40
2022-10-04T04:12:49.563Z,4.38
2022-10-04T04:15:16.979Z,4.63
2022-10-04T04:17:49.451Z,4.78
2022-10-04T04:20:22.366Z,4.55
2022-10-04T04:22:59.589Z,4.60
2022-10-04T04:25:29.107Z,4.45
2022-10-04T04:28:27.572Z,4.47
2022-10-04T04:31:00.278Z,4.68
2022-10-04T04:33:34.442Z,4.13
2022-10-04T04:36:06.496Z,4.87
2022-10-04T04:38:33.216Z,4.22
2022-10-04T04:41:09.846Z,4.40
2022-10-04T04:43:36.341Z,4.55
2022-10-04T04:46:26.606Z,4.88
2022-10-04T04:49:02.814Z,4.37
2022-10-04T04:51:31.922Z,4.85
2022-10-04T04:54:01.139Z,5.15
2022-10-04T04:56:30.076Z,4.50
2022-10-04T04:59:01.641Z,4.80
2022-10-04T05:01:31.911Z,4.90
2022-10-04T05:04:13.477Z,4.50
2022-10-04T05:06:42.611Z,4.57
2022-10-04T05:09:27.994Z,4.32
2022-10-04T05:12:02.349Z,4.00
2022-10-04T05:14:31.678Z,3.87
2022-10-04T05:16:58.317Z,4.32
2022-10-04T05:19:32.093Z,4.20
2022-10-04T05:22:01.527Z,4.70
2022-10-04T05:24:38.624Z,4.75
2022-10-04T05:27:16.821Z,4.33
2022-10-04T05:30:08.753Z,4.75
2022-10-04T05:33:02.814Z,5.57
2022-10-04T05:35:38.547Z,3.85
2022-10-04T05:38:19.380Z,4.28
2022-10-04T05:41:05.290Z,4.43
2022-10-04T05:43:34.691Z,4.65
2022-10-04T05:46:10.431Z,4.80
2022-10-04T05:48:39.396Z,4.15
2022-10-04T05:51:25.414Z,6.55
2022-10-04T05:53:52.772Z,8.43
2022-10-04T05:56:32.319Z,5.03
2022-10-04T05:59:32.528Z,4.70
2022-10-04T06:02:17.891Z,4.53
2022-10-04T06:05:05.737Z,4.78
2022-10-04T06:07:46.362Z,4.07
2022-10-04T06:10:42.175Z,4.90
2022-10-04T06:13:17.215Z,4.65
2022-10-04T06:15:48.191Z,4.47
2022-10-04T06:18:23.738Z,4.50
2022-10-04T06:21:05.425Z,5.00
2022-10-04T06:23:37.025Z,4.60
2022-10-04T06:26:18.021Z,4.88
2022-10-04T06:28:50.145Z,4.82
2022-10-04T06:31:24.508Z,4.20
2022-10-04T06:34:21.852Z,5.77
2022-10-04T06:37:17.584Z,5.20
2022-10-04T06:40:02.874Z,4.65
2022-10-04T06:42:39.321Z,4.20
2022-10-04T06:45:28.999Z,4.78
2022-10-04T06:48:23.043Z,5.17
2022-10-04T06:51:03.289Z,5.13
2022-10-04T06:53:57.660Z,5.30
2022-10-04T06:56:46.594Z,5.65
2022-10-04T06:59:26.755Z,5.22
2022-10-04T07:02:00.526Z,5.20
2022-10-04T07:07:37.256Z,6.15
2022-10-04T07:10:24.009Z,5.07
2022-10-04T07:13:04.417Z,4.85
2022-10-04T07:15:41.688Z,6.80
2022-10-04T07:18:15.329Z,5.13
2022-10-04T07:20:42.031Z,5.03
2022-10-04T07:23:23.958Z,4.10
2022-10-04T07:25:58.832Z,4.43
2022-10-04T07:28:51.660Z,4.50
2022-10-04T07:31:27.279Z,4.13
2022-10-04T07:34:01.443Z,4.15
2022-10-04T07:36:39.941Z,3.78
2022-10-04T07:39:18.902Z,4.40
2022-10-04T07:41:50.552Z,4.13
2022-10-04T07:44:35.984Z,4.30
2022-10-04T07:47:25.706Z,4.47
2022-10-04T07:49:54.001Z,4.50
2022-10-04T07:52:44.965Z,4.88
2022-10-04T07:55:37.234Z,4.83
2022-10-04T07:58:35.385Z,4.72
2022-10-04T08:01:10.204Z,4.90
2022-10-04T08:03:39.595Z,5.15
2022-10-04T08:06:12.019Z,5.65
2022-10-04T08:08:58.154Z,4.73
2022-10-04T08:11:38.667Z,5.00
2022-10-04T08:14:17.413Z,4.70
2022-10-04T08:17:01.486Z,4.88
2022-10-04T08:19:56.837Z,6.30
2022-10-04T08:22:37.643Z,4.80
2022-10-04T08:25:27.305Z,4.40
2022-10-04T08:28:41.714Z,4.25
2022-10-04T08:31:36.786Z,4.45
2022-10-04T08:34:34.013Z,4.72
2022-10-04T08:37:38.866Z,4.53
2022-10-04T08:40:20.346Z,4.32
2022-10-04T08:43:13.274Z,3.97
2022-10-04T08:46:10.190Z,4.30
2022-10-04T08:49:13.947Z,4.43
2022-10-04T08:51:51.147Z,6.23
2022-10-04T08:54:29.899Z,3.60
2022-10-04T08:57:16.157Z,3.50
2022-10-04T09:00:18.480Z,3.30
2022-10-04T09:03:00.113Z,3.30
2022-10-04T09:05:46.676Z,7.53
2022-10-04T09:08:40.827Z,3.17
2022-10-04T09:11:22.370Z,3.38
2022-10-04T09:14:38.778Z,3.55
2022-10-04T09:17:31.088Z,3.50
2022-10-04T09:20:37.705Z,3.33
2022-10-04T09:23:33.693Z,3.70
2022-10-04T09:26:44.066Z,3.45
2022-10-04T09:29:22.341Z,3.60
2022-10-04T09:32:10.274Z,3.17
2022-10-04T09:34:58.308Z,3.40
2022-10-04T09:37:49.568Z,3.42
2022-10-04T09:40:35.085Z,3.40
2022-10-04T09:43:37.574Z,3.15
2022-10-04T09:46:20.131Z,3.35
2022-10-04T09:49:10.914Z,3.70
2022-10-04T09:52:01.230Z,3.28
2022-10-04T09:54:50.612Z,3.47
2022-10-04T09:57:30.161Z,3.20
2022-10-04T10:00:22.011Z,3.53
2022-10-04T10:03:26.254Z,3.40
2022-10-04T10:06:14.422Z,3.33
2022-10-04T10:09:22.322Z,3.33
2022-10-04T10:12:16.248Z,3.45
2022-10-04T10:15:08.238Z,3.50
2022-10-04T10:18:08.892Z,3.67
2022-10-04T10:21:02.409Z,3.67
2022-10-04T10:23:50.690Z,3.00
2022-10-04T10:26:32.927Z,3.25
2022-10-04T10:29:30.890Z,3.75
2022-10-04T10:32:01.948Z,3.30
2022-10-04T10:34:49.640Z,3.20
2022-10-04T10:37:51.246Z,3.25
2022-10-04T10:40:32.794Z,2.67
2022-10-04T10:43:34.021Z,2.97
2022-10-04T10:46:38.147Z,2.87
2022-10-04T10:49:31.881Z,2.70
2022-10-04T10:52:25.383Z,3.13
2022-10-04T10:55:10.589Z,2.58
2022-10-04T10:57:55.765Z,2.67
2022-10-04T11:00:24.539Z,2.90
2022-10-04T11:03:35.976Z,2.60
2022-10-04T11:06:16.409Z,2.60
2022-10-04T11:09:22.981Z,2.78
2022-10-04T11:12:32.377Z,2.72
2022-10-04T11:15:47.393Z,2.40
2022-10-04T11:18:32.415Z,2.97
2022-10-04T11:21:17.532Z,2.47
2022-10-04T11:23:53.428Z,2.17
2022-10-04T11:26:25.649Z,2.25
2022-10-04T11:29:16.132Z,2.50
2022-10-04T11:31:54.815Z,2.22
2022-10-04T11:34:40.043Z,2.17
2022-10-04T11:37:29.169Z,1.77
2022-10-04T11:40:30.430Z,2.20
2022-10-04T11:43:35.972Z,1.93
2022-10-04T11:46:12.155Z,2.20
2022-10-04T11:49:14.369Z,2.10
2022-10-04T11:52:16.854Z,2.20
2022-10-04T11:55:23.338Z,2.20
2022-10-04T11:58:14.628Z,2.13
2022-10-04T12:00:56.209Z,1.90
2022-10-04T12:03:53.310Z,2.63
2022-10-04T12:06:47.757Z,2.50
2022-10-04T12:09:25.949Z,2.33
2022-10-04T12:12:39.253Z,2.40
2022-10-04T12:15:30.287Z,2.13
2022-10-04T12:18:09.023Z,2.13
2022-10-04T12:20:53.222Z,2.17
2022-10-04T12:23:49.737Z,2.10
2022-10-04T12:26:41.024Z,2.10
2022-10-04T12:29:28.877Z,2.40
2022-10-04T12:32:04.260Z,2.33
2022-10-04T12:34:40.204Z,2.30
2022-10-04T12:37:30.893Z,2.00
2022-10-04T12:40:12.583Z,2.30
2022-10-04T12:42:41.978Z,2.33
2022-10-04T12:45:08.333Z,2.15
2022-10-04T12:48:10.982Z,2.33
2022-10-04T12:50:54.376Z,2.10
2022-10-04T12:53:31.987Z,2.50
2022-10-04T12:56:04.330Z,2.50
2022-10-04T12:58:52.120Z,2.60
2022-10-04T13:01:46.819Z,2.47
2022-10-04T13:04:23.527Z,2.38
2022-10-04T13:06:59.378Z,2.70
2022-10-04T13:09:48.583Z,2.30
2022-10-04T13:13:08.893Z,2.50
2022-10-04T13:18:57.529Z,2.50
2022-10-04T13:21:36.206Z,2.43
2022-10-04T13:24:25.441Z,2.67
2022-10-04T13:27:01.006Z,2.67
2022-10-04T13:29:38.230Z,2.60
2022-10-04T13:32:20.840Z,2.30
2022-10-04T13:35:07.098Z,2.40
2022-10-04T13:37:49.075Z,2.63
2022-10-04T13:40:24.363Z,2.78
2022-10-04T13:42:53.581Z,2.90
2022-10-04T13:45:41.477Z,2.60
2022-10-04T13:48:32.507Z,2.60
2022-10-04T13:51:39.291Z,2.78
2022-10-04T13:54:24.020Z,2.95
2022-10-04T13:57:18.586Z,2.75
2022-10-04T14:00:02.491Z,2.80
2022-10-04T14:03:01.105Z,2.60
2022-10-04T14:05:42.652Z,2.58
2022-10-04T14:08:32.786Z,2.78
2022-10-04T14:11:23.778Z,2.97
2022-10-04T14:14:00.386Z,2.80
2022-10-04T14:16:41.786Z,3.07
2022-10-04T14:19:45.667Z,3.10
2022-10-04T14:22:48.539Z,3.38
2022-10-04T14:25:46.068Z,3.10
2022-10-04T14:28:31.636Z,3.05
2022-10-04T14:31:08.008Z,3.30
2022-10-04T14:34:26.740Z,2.95
2022-10-04T14:37:13.347Z,3.20
2022-10-04T14:39:54.980Z,3.03
2022-10-04T14:43:00.050Z,3.00
2022-10-04T14:46:04.646Z,3.00
2022-10-04T14:48:55.656Z,2.95
2022-10-04T14:51:37.724Z,2.70
2022-10-04T14:54:36.083Z,3.10
2022-10-04T14:57:25.622Z,3.00
2022-10-04T15:00:03.316Z,2.97
2022-10-04T15:02:32.958Z,2.22
2022-10-04T15:04:59.300Z,2.80
2022-10-04T15:07:38.087Z,2.88
2022-10-04T15:10:18.949Z,2.70
2022-10-04T15:13:30.380Z,3.10
2022-10-04T15:16:12.919Z,2.95
2022-10-04T15:18:56.718Z,3.03
2022-10-04T15:21:44.065Z,2.92
2022-10-04T15:24:31.730Z,2.90
2022-10-04T15:27:30.130Z,2.93
2022-10-04T15:30:20.941Z,2.90
2022-10-04T15:33:01.189Z,2.90
2022-10-04T15:35:36.894Z,2.75
2022-10-04T15:38:38.266Z,3.67
2022-10-04T15:41:13.809Z,3.37
2022-10-04T15:44:05.848Z,3.50
2022-10-04T15:47:00.545Z,3.28
2022-10-04T15:49:49.985Z,3.40
2022-10-04T15:52:45.838Z,3.20
2022-10-04T15:55:47.970Z,3.10
2022-10-04T15:58:33.353Z,3.00
2022-10-04T16:01:06.330Z,2.80
2022-10-04T16:03:46.082Z,3.00
2022-10-04T16:06:32.818Z,2.45
2022-10-04T16:09:37.439Z,2.90
2022-10-04T16:13:01.347Z,3.10
2022-10-04T16:15:34.455Z,3.58
2022-10-04T16:18:12.226Z,21.00
2022-10-04T16:20:57.264Z,21.17
2022-10-04T16:23:39.978Z,4.97
2022-10-04T16:26:11.257Z,3.30
2022-10-04T16:29:16.510Z,4.05
2022-10-04T16:31:47.852Z,3.90
2022-10-04T16:34:43.101Z,3.65
2022-10-04T16:37:44.724Z,4.10
2022-10-04T16:40:26.619Z,3.25
2022-10-04T16:43:20.958Z,3.42
2022-10-04T16:46:15.329Z,3.50
2022-10-04T16:48:57.498Z,3.47
2022-10-04T16:51:43.045Z,3.97
2022-10-04T16:54:12.157Z,3.30
2022-10-04T16:56:53.971Z,3.72
2022-10-04T16:59:38.672Z,4.05
2022-10-04T17:02:33.301Z,5.75
2022-10-04T17:05:02.845Z,3.97
2022-10-04T17:07:34.889Z,4.15
2022-10-04T17:10:32.089Z,4.00
2022-10-04T17:13:13.706Z,4.35
2022-10-04T17:15:49.785Z,5.75
2022-10-04T17:18:29.462Z,5.10
2022-10-04T17:21:05.935Z,4.53
2022-10-04T17:23:57.133Z,4.75
2022-10-04T17:26:38.418Z,4.53
2022-10-04T17:29:49.124Z,4.13
2022-10-04T17:32:35.089Z,4.53
2022-10-04T17:35:54.390Z,4.00
2022-10-04T17:38:43.559Z,4.22
2022-10-04T17:41:27.093Z,4.40
2022-10-04T17:44:24.329Z,4.57
2022-10-04T17:47:15.926Z,4.20
2022-10-04T17:50:14.923Z,4.40
2022-10-04T17:53:04.415Z,4.85
2022-10-04T17:55:58.990Z,6.20
2022-10-04T17:58:44.490Z,5.28
2022-10-04T18:01:17.625Z,4.53
2022-10-04T18:04:36.719Z,4.70
2022-10-04T18:07:18.657Z,5.75
2022-10-04T18:09:52.620Z,4.45
2022-10-04T18:12:29.981Z,5.07
2022-10-04T18:15:07.318Z,8.03
2022-10-04T18:17:45.072Z,6.78
2022-10-04T18:20:27.255Z,4.50
2022-10-04T18:23:13.387Z,4.60
2022-10-04T18:25:41.608Z,4.90
2022-10-04T18:28:07.970Z,4.80
2022-10-04T18:30:51.297Z,4.75
2022-10-04T18:33:26.454Z,6.32
2022-10-04T18:36:16.665Z,5.00
2022-10-04T18:38:47.327Z,5.68
2022-10-04T18:41:23.061Z,5.27
2022-10-04T18:43:58.429Z,4.78
2022-10-04T18:46:25.357Z,12.18
2022-10-04T18:48:56.867Z,6.38
2022-10-04T18:51:39.120Z,5.47
2022-10-04T18:54:41.549Z,5.63
2022-10-04T18:57:54.832Z,5.80
2022-10-04T19:00:40.646Z,6.05
2022-10-04T19:03:32.122Z,6.65
2022-10-04T19:06:13.822Z,6.82
2022-10-04T19:08:40.138Z,6.23
2022-10-04T19:11:15.995Z,6.13
2022-10-04T19:13:52.983Z,7.60
2022-10-04T19:16:42.811Z,6.55
2022-10-04T19:19:20.436Z,7.15
2022-10-04T19:22:00.833Z,7.03
2022-10-04T19:25:02.729Z,7.30
2022-10-04T19:27:41.098Z,7.18
2022-10-04T19:30:52.331Z,6.97
2022-10-04T19:33:36.942Z,7.30
2022-10-04T19:36:03.551Z,6.00
2022-10-04T19:38:40.461Z,8.85
2022-10-04T19:41:20.830Z,12.57
2022-10-04T19:43:58.667Z,7.38
2022-10-04T19:46:35.073Z,7.20
2022-10-04T19:49:02.871Z,9.47
2022-10-04T19:51:42.373Z,5.63
2022-10-04T19:54:15.910Z,6.25
2022-10-04T19:56:47.337Z,4.75
2022-10-04T19:59:35.785Z,5.57
2022-10-04T20:02:02.380Z,5.37
2022-10-04T20:04:42.157Z,4.75
2022-10-04T20:07:15.100Z,5.10
2022-10-04T20:09:43.601Z,5.00
2022-10-04T20:12:40.128Z,4.93
2022-10-04T20:15:20.083Z,5.23
2022-10-04T20:17:49.793Z,6.22
2022-10-04T20:20:39.205Z,6.07
2022-10-04T20:23:07.628Z,5.35
2022-10-04T20:25:54.247Z,5.70
2022-10-04T20:28:26.866Z,7.00
2022-10-04T20:31:02.248Z,6.25
2022-10-04T20:33:34.818Z,5.80
2022-10-04T20:36:03.893Z,6.18
2022-10-04T20:38:54.349Z,5.43
2022-10-04T20:41:48.802Z,6.00
2022-10-04T20:45:09.203Z,4.95
2022-10-04T20:47:42.808Z,5.63
2022-10-04T20:50:29.264Z,7.15
2022-10-04T20:52:58.778Z,6.28
2022-10-04T20:55:34.065Z,5.53
2022-10-04T20:58:25.306Z,6.32
2022-10-04T21:00:54.573Z,6.13
2022-10-04T21:03:22.003Z,5.88
2022-10-04T21:06:08.843Z,5.32
2022-10-04T21:08:36.681Z,7.57
2022-10-04T21:11:19.433Z,6.07
2022-10-04T21:13:58.353Z,6.18
2022-10-04T21:16:39.007Z,5.63
2022-10-04T21:19:30.313Z,5.80
2022-10-04T21:21:57.626Z,4.67
2022-10-04T21:24:52.901Z,5.30
2022-10-04T21:27:35.953Z,5.18
2022-10-04T21:30:06.788Z,8.75
2022-10-04T21:32:35.936Z,6.95
2022-10-04T21:35:04.286Z,7.07
2022-10-04T21:37:31.287Z,6.57
2022-10-04T21:39:57.833Z,6.22
2022-10-04T21:42:25.561Z,5.13
2022-10-04T21:44:52.035Z,5.65
2022-10-04T21:47:21.522Z,5.17
2022-10-04T21:49:48.738Z,5.90
2022-10-04T21:52:17.497Z,5.90
2022-10-04T21:54:44.687Z,6.20
2022-10-04T21:57:11.568Z,5.90
2022-10-04T21:59:37.940Z,6.40
2022-10-04T22:02:04.597Z,5.75
2022-10-04T22:04:30.991Z,6.90
2022-10-04T22:06:57.322Z,7.22
2022-10-04T22:09:23.758Z,6.80
2022-10-04T22:11:50.172Z,5.80
2022-10-04T22:14:16.609Z,6.07
2022-10-04T22:16:44.108Z,6.43
2022-10-04T22:19:10.744Z,6.70
2022-10-04T22:21:37.145Z,5.57
2022-10-04T22:24:04.424Z,5.43
2022-10-04T22:26:31.350Z,5.47
2022-10-04T22:28:57.838Z,5.25
2022-10-04T22:31:29.509Z,5.65
2022-10-04T22:33:56.700Z,5.50
2022-10-04T22:36:27.069Z,5.33
2022-10-04T22:38:58.702Z,6.22
2022-10-04T22:41:35.476Z,6.82
2022-10-04T22:44:23.282Z,5.90
2022-10-04T22:46:52.901Z,5.88
2022-10-04T22:49:25.062Z,6.13
2022-10-04T22:51:53.031Z,6.95
2022-10-04T22:54:22.014Z,5.97
2022-10-04T22:56:49.165Z,6.63
2022-10-04T22:59:19.496Z,6.25
2022-10-04T23:01:46.885Z,6.07
2022-10-04T23:04:24.962Z,7.10
2022-10-04T23:06:52.848Z,6.60
2022-10-04T23:09:19.973Z,6.85
2022-10-04T23:11:46.878Z,6.15
2022-10-04T23:14:13.293Z,5.93
2022-10-04T23:16:39.812Z,6.85
2022-10-04T23:19:08.939Z,7.18
2022-10-04T23:21:38.341Z,6.32
2022-10-04T23:24:22.579Z,6.28
2022-10-04T23:26:54.591Z,7.47
2022-10-04T23:29:31.942Z,7.80
2022-10-04T23:31:58.480Z,7.38
2022-10-04T23:34:30.495Z,6.80
2022-10-04T23:36:57.024Z,6.55
2022-10-04T23:39:41.856Z,6.73
2022-10-04T23:42:33.588Z,6.88
2022-10-04T23:45:01.457Z,6.72
2022-10-04T23:47:33.535Z,6.15
2022-10-04T23:49:59.976Z,6.70
2022-10-04T23:52:34.799Z,6.10
2022-10-04T23:55:02.633Z,5.70
2022-10-04T23:57:31.117Z,6.50
